This is the latest recevied weather packets stored in our database for station/object JI6QOV-13. If no packets are shown the sender has not sent any weather packets the latest 10 day(s).
| Time | Temp. | Humidity | Pressure | Rain* | Wind** | Luminosity | Snow |
|---|---|---|---|---|---|---|---|
| 1778118442 | 22.22° C | 24% | 999 hPa | 0 mm | - | - | - |
| 1778117242 | 22.22° C | 24% | 999 hPa | 0 mm | - | - | - |
| 1778116041 | 22.22° C | 25% | 999 hPa | 0 mm | - | - | - |
| 1778114840 | 21.67° C | 26% | 999 hPa | 0 mm | - | - | - |
| 1778113642 | 21.67° C | 28% | 999 hPa | 0 mm | - | - | - |
| 1778111242 | 20.56° C | 32% | 999 hPa | 0 mm | - | - | - |
| 1778110041 | 20° C | 33% | 999 hPa | 0 mm | - | - | - |
| 1778108841 | 19.44° C | 35% | 999 hPa | 0 mm | - | - | - |
| 1778107642 | 18.89° C | 37% | 999 hPa | 0 mm | - | - | - |
| 1778106441 | 18.33° C | 40% | 999 hPa | 0 mm | - | - | - |
| 1778051240 | 25° C | 15% | 1002 hPa | 0 mm | - | - | - |
| 1778050040 | 25° C | 15% | 1001 hPa | 0 mm | - | - | - |
| 1778048841 | 24.44° C | 15% | 1001 hPa | 0 mm | - | - | - |
| 1778047641 | 25° C | 15% | 1001 hPa | 0 mm | - | - | - |
| 1778046440 | 25.56° C | 15% | 1000 hPa | 0 mm | - | - | - |
| 1778045242 | 25° C | 15% | 1000 hPa | 0 mm | - | - | - |
| 1778044040 | 24.44° C | 15% | 1001 hPa | 0 mm | - | - | - |
| 1778042841 | 24.44° C | 15% | 1001 hPa | 0 mm | - | - | - |
| 1778041641 | 25° C | 15% | 1001 hPa | 0 mm | - | - | - |
| 1777754836 | 16.67° C | 35% | 993 hPa | 0 mm | - | - | - |
| 1777753635 | 16.67° C | 34% | 993 hPa | 0 mm | - | - | - |
| 1777751236 | 16.67° C | 33% | 994 hPa | 0 mm | - | - | - |
| 1777747636 | 16.67° C | 32% | 994 hPa | 0 mm | - | - | - |
| 1777746435 | 16.67° C | 33% | 993 hPa | 0 mm | - | - | - |
| 1777744036 | 16.67° C | 31% | 995 hPa | 0 mm | - | - | - |
* Rain latest hour (hover to see other rain measurements)
** Current wind speed in m/s (hover to see current wind gust speed)